Max Planck — ELZY8 — position and weather

sailwx.info

Track history (hours):
 
Tides and Currents Weather Stations Pressure Air Temp Water Temp Dewpoint Dewpoint Depression Visibility Wind Speed Wind Dir Waves Ship Positions

Max Planck

Last reported at 2015-Aug-29 12:33 UTC. Time now 2015-Sep-03 04:37 UTC.
Position N 31°01' E 122°21'.

Length 99.9 m; beam 16.2 m; draft 6.8 m.

Type: Tanker. MMSI: 636091773.

Date/timePositionNaut miles runAvg speedWind from/ knotsBaromVisibWave heightAir tempDewpointWater temp
2015-Aug-29 12:33N 31°01' E 122°21'8 7.6
2015-Aug-29 11:33N 31°03' E 122°12'9 9.3
2015-Aug-29 10:34N 31°05' E 122°02'1212.0
2015-Aug-29 09:33N 31°11' E 121°50'1313.5
2015-Aug-29 08:34N 31°21' E 121°39'1110.8
2015-Aug-29 07:34N 31°27' E 121°28'1212.1
2015-Aug-29 06:33N 31°35' E 121°18'1110.6
2015-Aug-29 05:34N 31°42' E 121°08'9 9.5
2015-Aug-29 04:34N 31°47' E 120°59'1010.3
2015-Aug-29 03:34N 31°55' E 120°52'1212.0
2015-Aug-29 02:34N 31°60' E 120°39'1111.0
2015-Aug-29 01:33N 32°04' E 120°27'19 0.6
2015-Aug-27 16:21N 31°57' E 120°06'5 5.0
2015-Aug-27 15:24N 31°56' E 120°11'17 9.3
2015-Aug-27 13:33N 32°04' E 120°29'9 8.8
2015-Aug-27 12:33N 31°60' E 120°38'8 7.8
2015-Aug-27 11:31N 32°01' E 120°47'10 9.2
2015-Aug-27 10:23N 31°52' E 120°54'7 8.4
2015-Aug-27 09:34N 31°47' E 120°60'9 9.3
2015-Aug-27 08:34N 31°42' E 121°09'10 9.8
2015-Aug-27 07:34N 31°36' E 121°18'1010.1
2015-Aug-27 06:33N 31°29' E 121°27'7 7.4
2015-Aug-27 05:34N 31°24' E 121°33'8 8.2
2015-Aug-27 04:33N 31°20' E 121°42'8 8.2
2015-Aug-27 03:33N 31°14' E 121°48'1010.4
2015-Aug-27 02:33N 31°07' E 121°57'1211.9
2015-Aug-27 01:33N 31°03' E 122°10'7 7.3
2015-Aug-27 00:33N 31°03' E 122°19'7 6.7
2015-Aug-26 23:32N 31°01' E 122°27'9 9.6
2015-Aug-26 22:33N 30°59' E 122°37'4 3.1
2015-Aug-26 21:16N 31°03' E 122°39'0 0.0
2015-Aug-26 20:31N 31°03' E 122°39'0 0.1
2015-Aug-26 19:28N 31°03' E 122°40'  
2015-Aug-22 03:05N 34°51' E 139°20'7 9.7
2015-Aug-22 02:22N 34°55' E 139°27'910.6
2015-Aug-22 01:33N 35°00' E 139°35'1110.7
2015-Aug-22 00:34N 35°07' E 139°45'1110.9
2015-Aug-21 23:33N 35°18' E 139°44'1010.0
2015-Aug-21 22:33N 35°28' E 139°47'3 3.3
2015-Aug-21 21:29N 35°31' E 139°46'0 0.0
2015-Aug-21 04:18N 35°31' E 139°46'1 1.0
2015-Aug-21 03:33N 35°30' E 139°46'3 3.1
2015-Aug-21 02:33N 35°28' E 139°44'0 0.0
2015-Aug-21 01:33N 35°28' E 139°44'0 0.0
2015-Aug-21 00:33N 35°28' E 139°44'0 0.3
2015-Aug-20 23:34N 35°27' E 139°44'10 9.6
2015-Aug-20 22:34N 35°18' E 139°45'1111.0
2015-Aug-20 21:33N 35°07' E 139°45'1010.2
2015-Aug-20 20:33N 35°00' E 139°36'  
Track history (hours):
 
Tides and Currents Weather Stations Pressure Air Temp Water Temp Dewpoint Dewpoint Depression Visibility Wind Speed Wind Dir Waves Ship Positions

Max Planck

Last reported at 2015-Aug-29 12:33 UTC. Time now 2015-Sep-03 04:37 UTC.
Position N 31°01' E 122°21'.

Length 99.9 m; beam 16.2 m; draft 6.8 m.

Type: Tanker. MMSI: 636091773.

Date/timePositionNaut miles runAvg speedWind from/ knotsBaromVisibWave heightAir tempDewpointWater temp
2015-Aug-29 12:33N 31°01' E 122°21'8 7.6
2015-Aug-29 11:33N 31°03' E 122°12'9 9.3
2015-Aug-29 10:34N 31°05' E 122°02'1212.0
2015-Aug-29 09:33N 31°11' E 121°50'1313.5
2015-Aug-29 08:34N 31°21' E 121°39'1110.8
2015-Aug-29 07:34N 31°27' E 121°28'1212.1
2015-Aug-29 06:33N 31°35' E 121°18'1110.6
2015-Aug-29 05:34N 31°42' E 121°08'9 9.5
2015-Aug-29 04:34N 31°47' E 120°59'1010.3
2015-Aug-29 03:34N 31°55' E 120°52'1212.0
2015-Aug-29 02:34N 31°60' E 120°39'1111.0
2015-Aug-29 01:33N 32°04' E 120°27'19 0.6
2015-Aug-27 16:21N 31°57' E 120°06'5 5.0
2015-Aug-27 15:24N 31°56' E 120°11'17 9.3
2015-Aug-27 13:33N 32°04' E 120°29'9 8.8
2015-Aug-27 12:33N 31°60' E 120°38'8 7.8
2015-Aug-27 11:31N 32°01' E 120°47'10 9.2
2015-Aug-27 10:23N 31°52' E 120°54'7 8.4
2015-Aug-27 09:34N 31°47' E 120°60'9 9.3
2015-Aug-27 08:34N 31°42' E 121°09'10 9.8
2015-Aug-27 07:34N 31°36' E 121°18'1010.1
2015-Aug-27 06:33N 31°29' E 121°27'7 7.4
2015-Aug-27 05:34N 31°24' E 121°33'8 8.2
2015-Aug-27 04:33N 31°20' E 121°42'8 8.2
2015-Aug-27 03:33N 31°14' E 121°48'1010.4
2015-Aug-27 02:33N 31°07' E 121°57'1211.9
2015-Aug-27 01:33N 31°03' E 122°10'7 7.3
2015-Aug-27 00:33N 31°03' E 122°19'7 6.7
2015-Aug-26 23:32N 31°01' E 122°27'9 9.6
2015-Aug-26 22:33N 30°59' E 122°37'4 3.1
2015-Aug-26 21:16N 31°03' E 122°39'0 0.0
2015-Aug-26 20:31N 31°03' E 122°39'0 0.1
2015-Aug-26 19:28N 31°03' E 122°40'  
2015-Aug-22 03:05N 34°51' E 139°20'7 9.7
2015-Aug-22 02:22N 34°55' E 139°27'910.6
2015-Aug-22 01:33N 35°00' E 139°35'1110.7
2015-Aug-22 00:34N 35°07' E 139°45'1110.9
2015-Aug-21 23:33N 35°18' E 139°44'1010.0
2015-Aug-21 22:33N 35°28' E 139°47'3 3.3
2015-Aug-21 21:29N 35°31' E 139°46'0 0.0
2015-Aug-21 04:18N 35°31' E 139°46'1 1.0
2015-Aug-21 03:33N 35°30' E 139°46'3 3.1
2015-Aug-21 02:33N 35°28' E 139°44'0 0.0
2015-Aug-21 01:33N 35°28' E 139°44'0 0.0
2015-Aug-21 00:33N 35°28' E 139°44'0 0.3
2015-Aug-20 23:34N 35°27' E 139°44'10 9.6
2015-Aug-20 22:34N 35°18' E 139°45'1111.0
2015-Aug-20 21:33N 35°07' E 139°45'1010.2
2015-Aug-20 20:33N 35°00' E 139°36'  

Dump ship's entire track history